This is the latest recevied weather packets stored in our database for station/object N7NMS-13. If no packets are shown the sender has not sent any weather packets the latest 1 day(s).
| Time | Temp. | Humidity | Pressure | Rain* | Wind** | Luminosity | Snow |
|---|---|---|---|---|---|---|---|
| 1777992010 | 21.11° C | 47% | - | 0 mm | 2.68 m/s, 197° | - | - |
| 1777991410 | 20.56° C | 47% | - | 0 mm | 3.13 m/s, 211° | - | - |
| 1777990810 | 21.11° C | 48% | - | 0 mm | 2.24 m/s, 186° | - | - |
| 1777990210 | 21.11° C | 49% | - | 0 mm | 0.45 m/s, 145° | - | - |
| 1777989610 | 21.11° C | 50% | - | 0 mm | 1.79 m/s, 191° | - | - |
| 1777989010 | 20.56° C | 52% | - | 0 mm | 0.45 m/s, 211° | - | - |
| 1777988409 | 21.11° C | 54% | - | 0 mm | 0 m/s | - | - |
| 1777987809 | 20° C | 53% | - | 0 mm | 0.45 m/s, 180° | - | - |
| 1777987209 | 19.44° C | 56% | - | 0 mm | 0.45 m/s, 249° | - | - |
| 1777986579 | 18.89° C | 58% | - | 0 mm | 0.45 m/s, 176° | - | - |
| 1777985979 | 18.33° C | 62% | - | 0 mm | 0 m/s | - | - |
| 1777985379 | 17.78° C | 65% | - | 0 mm | 0 m/s | - | - |
| 1777984778 | 17.78° C | 69% | - | 0 mm | 0.89 m/s, 238° | - | - |
| 1777984178 | 16.11° C | 72% | - | 0 mm | 0 m/s | - | - |
| 1777983578 | 15° C | 83% | - | 0 mm | 0 m/s | - | - |
| 1777982978 | 13.33° C | 90% | - | 0 mm | 0 m/s | - | - |
| 1777982378 | 12.22° C | 94% | - | 0 mm | 0 m/s | - | - |
| 1777981778 | 11.11° C | 95% | - | 0 mm | 0 m/s | - | - |
| 1777981178 | 10.56° C | 96% | - | 0 mm | 0 m/s | - | - |
| 1777980577 | 10° C | 96% | - | 0 mm | 0 m/s | - | - |
| 1777979977 | 9.44° C | 96% | - | 0 mm | 0 m/s | - | - |
| 1777979347 | 9.44° C | 96% | - | 0 mm | 0 m/s | - | - |
| 1777978747 | 9.44° C | 96% | - | 0 mm | 0 m/s | - | - |
| 1777978147 | 9.44° C | 96% | - | 0 mm | 0 m/s | - | - |
| 1777977547 | 8.89° C | 96% | - | 0 mm | 0 m/s | - | - |
* Rain latest hour (hover to see other rain measurements)
** Current wind speed in m/s (hover to see current wind gust speed)